RYR6MQ LIME-LGIR
Flight info
| Callsign | RYR6MQ |
|---|---|
| Flight time | 2h 13m |
| Altitude | 37000 |
| Route | LOGDI DCT EKDIR DCT LOMED DCT LATAN DCT TRL UM601 MIL UL617 XAVIS |
| Aircraft | B738/M-SDE2E3FGHIRWXY/LB1 |
Departure
| Time | 2026-04-30 17:41 |
|---|---|
| Airport | Il Caravaggio International Airport (LIME) |
Arrival
| Time | 2026-04-30 19:54 |
|---|---|
| Airport | Heraklion International Nikos Kazantzakis Airport (LGIR) |
| Time | Latitude | Longitude | Altitude | Speed | Heading |
|---|---|---|---|---|---|
| 2026-04-30 17:39 | 45.60733 | 9.57534 | 6329 ft | 240 kts | 223° |
| 2026-04-30 17:41 | 45.48609 | 9.55064 | 12218 ft | 271 kts | 154° |
| 2026-04-30 17:42 | 45.45089 | 9.57230 | 13633 ft | 281 kts | 154° |
| 2026-04-30 17:42 | 45.39573 | 9.60560 | 15608 ft | 293 kts | 154° |
| 2026-04-30 17:43 | 45.35799 | 9.62948 | 16818 ft | 304 kts | 148° |
| 2026-04-30 17:44 | 45.29954 | 9.68417 | 17583 ft | 359 kts | 143° |
| 2026-04-30 17:44 | 45.23643 | 9.74364 | 19577 ft | 369 kts | 144° |
| 2026-04-30 17:46 | 45.12621 | 9.84512 | 22563 ft | 386 kts | 144° |
| 2026-04-30 17:47 | 45.03432 | 9.92923 | 24684 ft | 399 kts | 144° |
| 2026-04-30 17:48 | 44.93787 | 10.01239 | 26441 ft | 415 kts | 148° |
| 2026-04-30 17:48 | 44.86231 | 10.07378 | 27878 ft | 421 kts | 148° |
| 2026-04-30 17:49 | 44.75959 | 10.15795 | 29576 ft | 432 kts | 148° |
| 2026-04-30 17:50 | 44.65678 | 10.25061 | 30930 ft | 445 kts | 142° |
| 2026-04-30 17:51 | 44.58169 | 10.32961 | 31794 ft | 454 kts | 142° |
| 2026-04-30 17:52 | 44.50458 | 10.40844 | 32621 ft | 462 kts | 143° |
| 2026-04-30 17:53 | 44.37287 | 10.54145 | 33959 ft | 474 kts | 143° |
| 2026-04-30 17:54 | 44.26482 | 10.65010 | 34825 ft | 482 kts | 143° |
| 2026-04-30 17:55 | 44.16467 | 10.77387 | 35628 ft | 484 kts | 127° |
| 2026-04-30 17:56 | 44.07852 | 10.91869 | 36596 ft | 485 kts | 129° |
| 2026-04-30 17:57 | 44.01362 | 11.02683 | 37237 ft | 485 kts | 125° |
| 2026-04-30 17:58 | 43.95492 | 11.14037 | 37205 ft | 477 kts | 123° |
| 2026-04-30 18:00 | 43.80099 | 11.43773 | 37230 ft | 483 kts | 124° |
| 2026-04-30 18:01 | 43.70157 | 11.62680 | 37218 ft | 487 kts | 125° |
| 2026-04-30 18:02 | 43.58857 | 11.84030 | 37218 ft | 485 kts | 125° |
| 2026-04-30 18:04 | 43.46929 | 12.06399 | 37256 ft | 481 kts | 126° |
| 2026-04-30 18:06 | 43.31038 | 12.35938 | 37226 ft | 481 kts | 126° |
| 2026-04-30 18:08 | 43.16942 | 12.61898 | 37215 ft | 488 kts | 126° |
| 2026-04-30 18:10 | 43.00585 | 12.91740 | 37226 ft | 491 kts | 127° |
| 2026-04-30 18:11 | 42.86157 | 13.17811 | 37203 ft | 491 kts | 127° |
| 2026-04-30 18:13 | 42.75875 | 13.36245 | 37260 ft | 490 kts | 127° |
| 2026-04-30 18:14 | 42.65538 | 13.54675 | 37260 ft | 491 kts | 127° |
| 2026-04-30 18:15 | 42.53084 | 13.76727 | 37270 ft | 491 kts | 128° |
| 2026-04-30 18:16 | 42.44737 | 13.91414 | 37260 ft | 493 kts | 128° |
| 2026-04-30 18:17 | 42.40551 | 13.98753 | 37249 ft | 493 kts | 128° |
| 2026-04-30 18:18 | 42.34254 | 14.09758 | 37247 ft | 493 kts | 129° |
| 2026-04-30 18:18 | 42.30051 | 14.17082 | 37260 ft | 494 kts | 129° |
| 2026-04-30 18:19 | 42.25834 | 14.24411 | 37277 ft | 495 kts | 129° |
| 2026-04-30 18:19 | 42.21627 | 14.31706 | 37261 ft | 496 kts | 129° |
| 2026-04-30 18:20 | 42.17381 | 14.39050 | 37238 ft | 497 kts | 129° |
| 2026-04-30 18:20 | 42.13126 | 14.46392 | 37246 ft | 497 kts | 129° |
| 2026-04-30 18:21 | 42.08864 | 14.53728 | 37217 ft | 498 kts | 129° |
| 2026-04-30 18:21 | 42.04596 | 14.61057 | 37231 ft | 497 kts | 129° |
| 2026-04-30 18:22 | 42.00325 | 14.68374 | 37229 ft | 497 kts | 129° |
| 2026-04-30 18:22 | 41.93904 | 14.79337 | 37226 ft | 497 kts | 129° |
| 2026-04-30 18:23 | 41.89622 | 14.86627 | 37225 ft | 497 kts | 129° |
| 2026-04-30 18:23 | 41.85342 | 14.93900 | 37234 ft | 496 kts | 130° |
| 2026-04-30 18:24 | 41.78910 | 15.04789 | 37218 ft | 496 kts | 130° |
| 2026-04-30 18:25 | 41.74620 | 15.12032 | 37213 ft | 496 kts | 130° |
| 2026-04-30 18:25 | 41.68182 | 15.22869 | 37214 ft | 495 kts | 130° |
| 2026-04-30 18:26 | 41.61738 | 15.33677 | 37220 ft | 496 kts | 130° |
| 2026-04-30 18:27 | 41.55284 | 15.44464 | 37197 ft | 495 kts | 130° |
| 2026-04-30 18:28 | 41.48829 | 15.55213 | 37210 ft | 495 kts | 130° |
| 2026-04-30 18:28 | 41.42359 | 15.65949 | 37220 ft | 495 kts | 131° |
| 2026-04-30 18:29 | 41.33698 | 15.80263 | 37202 ft | 497 kts | 131° |
| 2026-04-30 18:30 | 41.25001 | 15.94568 | 37185 ft | 498 kts | 131° |
| 2026-04-30 18:31 | 41.18452 | 16.05294 | 37194 ft | 499 kts | 131° |
| 2026-04-30 18:32 | 41.11875 | 16.16031 | 37178 ft | 500 kts | 131° |
| 2026-04-30 18:33 | 41.05276 | 16.26764 | 37163 ft | 501 kts | 131° |
| 2026-04-30 18:33 | 40.98700 | 16.37423 | 37156 ft | 500 kts | 131° |
| 2026-04-30 18:34 | 40.92095 | 16.48093 | 37156 ft | 499 kts | 131° |
| 2026-04-30 18:35 | 40.87693 | 16.55181 | 37160 ft | 499 kts | 132° |
| 2026-04-30 18:35 | 40.83291 | 16.62254 | 37154 ft | 498 kts | 132° |
| 2026-04-30 18:36 | 40.76685 | 16.72839 | 37170 ft | 498 kts | 132° |
| 2026-04-30 18:37 | 40.70083 | 16.83381 | 37138 ft | 497 kts | 132° |
| 2026-04-30 18:37 | 40.65685 | 16.90384 | 37160 ft | 496 kts | 132° |
| 2026-04-30 18:38 | 40.61285 | 16.97373 | 37158 ft | 496 kts | 132° |
| 2026-04-30 18:38 | 40.56874 | 17.04364 | 37152 ft | 496 kts | 132° |
| 2026-04-30 18:39 | 40.52464 | 17.11337 | 37142 ft | 496 kts | 132° |
| 2026-04-30 18:39 | 40.48045 | 17.18309 | 37133 ft | 497 kts | 133° |
| 2026-04-30 18:40 | 40.43621 | 17.25272 | 37130 ft | 496 kts | 133° |
| 2026-04-30 18:40 | 40.39194 | 17.32226 | 37134 ft | 497 kts | 133° |
| 2026-04-30 18:41 | 40.34758 | 17.39176 | 37130 ft | 497 kts | 133° |
| 2026-04-30 18:41 | 40.30315 | 17.46124 | 37134 ft | 497 kts | 133° |
| 2026-04-30 18:42 | 40.25863 | 17.53069 | 37130 ft | 498 kts | 133° |
| 2026-04-30 18:42 | 40.19180 | 17.63465 | 37103 ft | 498 kts | 133° |
| 2026-04-30 18:45 | 39.94604 | 18.01400 | 37115 ft | 497 kts | 133° |
| 2026-04-30 18:46 | 39.90157 | 18.08214 | 37098 ft | 497 kts | 133° |
| 2026-04-30 18:46 | 39.85679 | 18.15062 | 37103 ft | 496 kts | 133° |
| 2026-04-30 18:47 | 39.81202 | 18.21893 | 37109 ft | 496 kts | 133° |
| 2026-04-30 18:47 | 39.76720 | 18.28715 | 37100 ft | 496 kts | 133° |
| 2026-04-30 18:48 | 39.72233 | 18.35530 | 37100 ft | 496 kts | 133° |
| 2026-04-30 18:48 | 39.67743 | 18.42336 | 37102 ft | 496 kts | 133° |
| 2026-04-30 18:49 | 39.63252 | 18.49129 | 37072 ft | 496 kts | 133° |
| 2026-04-30 18:49 | 39.59522 | 18.54759 | 37092 ft | 495 kts | 133° |
| 2026-04-30 18:50 | 39.54275 | 18.62661 | 37088 ft | 495 kts | 133° |
| 2026-04-30 18:50 | 39.50542 | 18.68273 | 37087 ft | 494 kts | 133° |
| 2026-04-30 18:51 | 39.46048 | 18.75011 | 37089 ft | 494 kts | 134° |
| 2026-04-30 18:51 | 39.41551 | 18.81741 | 37090 ft | 494 kts | 133° |
| 2026-04-30 18:52 | 39.37051 | 18.88461 | 37079 ft | 494 kts | 133° |
| 2026-04-30 18:52 | 39.32551 | 18.95167 | 37058 ft | 494 kts | 133° |
| 2026-04-30 18:53 | 39.28123 | 19.01940 | 37070 ft | 495 kts | 128° |
| 2026-04-30 18:53 | 39.24160 | 19.09214 | 37078 ft | 496 kts | 126° |
| 2026-04-30 18:54 | 39.20305 | 19.16583 | 37076 ft | 496 kts | 126° |
| 2026-04-30 18:54 | 39.16411 | 19.23916 | 37069 ft | 496 kts | 126° |
| 2026-04-30 18:55 | 39.12479 | 19.31203 | 37066 ft | 495 kts | 126° |
| 2026-04-30 18:55 | 39.06553 | 19.42102 | 37063 ft | 495 kts | 127° |
| 2026-04-30 18:56 | 39.00624 | 19.52975 | 37063 ft | 495 kts | 127° |
| 2026-04-30 18:57 | 38.94716 | 19.63780 | 37063 ft | 494 kts | 127° |
| 2026-04-30 18:57 | 38.90757 | 19.71000 | 37059 ft | 494 kts | 127° |
| 2026-04-30 18:58 | 38.84816 | 19.81805 | 37069 ft | 494 kts | 127° |
| 2026-04-30 18:59 | 38.78869 | 19.92585 | 37056 ft | 493 kts | 127° |
| 2026-04-30 19:00 | 38.70934 | 20.06911 | 37027 ft | 492 kts | 127° |
| 2026-04-30 19:01 | 38.63006 | 20.21164 | 37061 ft | 491 kts | 127° |
| 2026-04-30 19:02 | 38.57052 | 20.31826 | 37054 ft | 491 kts | 127° |
| 2026-04-30 19:03 | 38.49114 | 20.45987 | 37054 ft | 490 kts | 127° |
| 2026-04-30 19:04 | 38.41175 | 20.60088 | 37031 ft | 489 kts | 127° |
| 2026-04-30 19:05 | 38.33273 | 20.74067 | 37036 ft | 487 kts | 127° |
| 2026-04-30 19:06 | 38.25356 | 20.88005 | 37041 ft | 485 kts | 127° |
| 2026-04-30 19:06 | 38.19423 | 20.98414 | 37041 ft | 484 kts | 127° |
| 2026-04-30 19:07 | 38.13496 | 21.08780 | 37042 ft | 483 kts | 127° |
| 2026-04-30 19:08 | 38.05598 | 21.22543 | 37024 ft | 481 kts | 127° |
| 2026-04-30 19:09 | 37.99688 | 21.32803 | 37045 ft | 480 kts | 127° |
| 2026-04-30 19:09 | 37.95750 | 21.39621 | 37048 ft | 479 kts | 127° |
| 2026-04-30 19:10 | 37.87871 | 21.53223 | 37050 ft | 479 kts | 127° |
| 2026-04-30 19:11 | 37.81949 | 21.63409 | 37049 ft | 479 kts | 128° |
| 2026-04-30 19:12 | 37.77994 | 21.70194 | 37045 ft | 480 kts | 128° |
| 2026-04-30 19:12 | 37.74030 | 21.76982 | 37044 ft | 480 kts | 128° |
| 2026-04-30 19:13 | 37.66077 | 21.90555 | 37044 ft | 481 kts | 128° |
| 2026-04-30 19:14 | 37.62089 | 21.97340 | 37057 ft | 481 kts | 128° |
| 2026-04-30 19:14 | 37.58095 | 22.04123 | 37065 ft | 482 kts | 128° |
| 2026-04-30 19:15 | 37.54090 | 22.10910 | 37055 ft | 482 kts | 128° |
| 2026-04-30 19:15 | 37.48077 | 22.21071 | 37045 ft | 482 kts | 128° |
| 2026-04-30 19:16 | 37.44074 | 22.27822 | 37052 ft | 481 kts | 128° |
| 2026-04-30 19:17 | 37.38922 | 22.38571 | 37036 ft | 480 kts | 110° |
| 2026-04-30 19:17 | 37.35599 | 22.50389 | 37012 ft | 480 kts | 109° |
| 2026-04-30 19:18 | 37.32215 | 22.62203 | 37015 ft | 479 kts | 110° |
| 2026-04-30 19:19 | 37.29914 | 22.70068 | 37016 ft | 480 kts | 110° |
| 2026-04-30 19:19 | 37.26447 | 22.81870 | 37017 ft | 481 kts | 110° |
| 2026-04-30 19:20 | 37.24125 | 22.89746 | 37000 ft | 482 kts | 110° |
| 2026-04-30 19:21 | 37.20628 | 23.01577 | 36992 ft | 483 kts | 110° |
| 2026-04-30 19:22 | 37.15935 | 23.17368 | 36981 ft | 483 kts | 111° |
| 2026-04-30 19:23 | 37.08845 | 23.41027 | 36980 ft | 483 kts | 111° |
| 2026-04-30 19:24 | 37.05274 | 23.52830 | 36981 ft | 483 kts | 111° |
| 2026-04-30 19:25 | 36.99307 | 23.72449 | 36897 ft | 483 kts | 111° |
| 2026-04-30 19:26 | 36.96918 | 23.80266 | 36212 ft | 475 kts | 112° |
| 2026-04-30 19:26 | 36.94572 | 23.87920 | 35455 ft | 467 kts | 112° |
| 2026-04-30 19:26 | 36.93412 | 23.91695 | 35077 ft | 464 kts | 112° |
| 2026-04-30 19:27 | 36.91128 | 23.99120 | 34331 ft | 458 kts | 112° |
| 2026-04-30 19:27 | 36.88861 | 24.06500 | 33680 ft | 448 kts | 111° |
| 2026-04-30 19:28 | 36.87766 | 24.10068 | 33312 ft | 444 kts | 112° |
| 2026-04-30 19:28 | 36.85555 | 24.17253 | 32555 ft | 437 kts | 112° |
| 2026-04-30 19:29 | 36.83400 | 24.24230 | 31829 ft | 430 kts | 112° |
| 2026-04-30 19:29 | 36.82327 | 24.27700 | 31478 ft | 427 kts | 112° |
| 2026-04-30 19:30 | 36.79144 | 24.37959 | 30430 ft | 418 kts | 112° |
| 2026-04-30 19:30 | 36.77052 | 24.44687 | 29677 ft | 413 kts | 111° |
| 2026-04-30 19:31 | 36.74642 | 24.51078 | 28945 ft | 403 kts | 126° |
| 2026-04-30 19:31 | 36.72903 | 24.53772 | 28686 ft | 394 kts | 136° |
| 2026-04-30 19:31 | 36.68814 | 24.58165 | 28007 ft | 385 kts | 143° |
| 2026-04-30 19:32 | 36.66736 | 24.60248 | 27639 ft | 382 kts | 143° |
| 2026-04-30 19:32 | 36.64674 | 24.62311 | 27285 ft | 379 kts | 143° |
| 2026-04-30 19:32 | 36.62623 | 24.64371 | 26940 ft | 377 kts | 143° |
| 2026-04-30 19:32 | 36.60592 | 24.66420 | 26587 ft | 375 kts | 143° |
| 2026-04-30 19:33 | 36.58573 | 24.68463 | 26241 ft | 373 kts | 143° |
| 2026-04-30 19:33 | 36.56567 | 24.70497 | 25898 ft | 371 kts | 143° |
| 2026-04-30 19:33 | 36.54572 | 24.72521 | 25553 ft | 369 kts | 143° |
| 2026-04-30 19:33 | 36.52587 | 24.74535 | 25217 ft | 368 kts | 143° |
| 2026-04-30 19:34 | 36.50637 | 24.76514 | 24879 ft | 366 kts | 143° |
| 2026-04-30 19:34 | 36.48638 | 24.78541 | 24534 ft | 365 kts | 143° |
| 2026-04-30 19:34 | 36.44713 | 24.82516 | 23838 ft | 363 kts | 143° |
| 2026-04-30 19:35 | 36.42757 | 24.84495 | 23475 ft | 363 kts | 143° |
| 2026-04-30 19:35 | 36.40801 | 24.86473 | 23083 ft | 361 kts | 143° |
| 2026-04-30 19:35 | 36.38883 | 24.88412 | 22729 ft | 359 kts | 143° |
| 2026-04-30 19:35 | 36.36924 | 24.90391 | 22372 ft | 357 kts | 143° |
| 2026-04-30 19:36 | 36.35030 | 24.92303 | 22039 ft | 355 kts | 143° |
| 2026-04-30 19:36 | 36.33094 | 24.94256 | 21696 ft | 353 kts | 143° |
| 2026-04-30 19:36 | 36.29945 | 24.97429 | 21145 ft | 349 kts | 143° |
| 2026-04-30 19:37 | 36.27455 | 24.99936 | 20704 ft | 347 kts | 143° |
| 2026-04-30 19:37 | 36.25585 | 25.01817 | 20379 ft | 345 kts | 143° |
| 2026-04-30 19:37 | 36.23733 | 25.03680 | 20054 ft | 344 kts | 143° |
| 2026-04-30 19:37 | 36.21883 | 25.05538 | 19730 ft | 342 kts | 143° |
| 2026-04-30 19:38 | 36.20038 | 25.07391 | 19412 ft | 341 kts | 143° |
| 2026-04-30 19:38 | 36.18201 | 25.09233 | 19085 ft | 339 kts | 143° |
| 2026-04-30 19:38 | 36.16962 | 25.10477 | 18860 ft | 339 kts | 143° |
| 2026-04-30 19:38 | 36.15135 | 25.12308 | 18540 ft | 338 kts | 143° |
| 2026-04-30 19:39 | 36.13311 | 25.14135 | 18187 ft | 337 kts | 143° |
| 2026-04-30 19:39 | 36.11494 | 25.15954 | 17833 ft | 335 kts | 143° |
| 2026-04-30 19:39 | 36.09684 | 25.17765 | 17492 ft | 334 kts | 143° |
| 2026-04-30 19:39 | 36.07886 | 25.19563 | 17161 ft | 332 kts | 143° |
| 2026-04-30 19:40 | 36.06096 | 25.21352 | 16836 ft | 330 kts | 143° |
| 2026-04-30 19:40 | 36.04315 | 25.23131 | 16516 ft | 328 kts | 143° |
| 2026-04-30 19:40 | 36.02544 | 25.24898 | 16198 ft | 326 kts | 143° |
| 2026-04-30 19:40 | 36.00783 | 25.26655 | 15882 ft | 325 kts | 143° |
| 2026-04-30 19:41 | 35.99026 | 25.28406 | 15570 ft | 324 kts | 143° |
| 2026-04-30 19:41 | 35.97277 | 25.30149 | 15257 ft | 323 kts | 143° |
| 2026-04-30 19:41 | 35.95557 | 25.31861 | 14947 ft | 322 kts | 142° |
| 2026-04-30 19:41 | 35.93817 | 25.33593 | 14635 ft | 321 kts | 142° |
| 2026-04-30 19:42 | 35.92083 | 25.35317 | 14305 ft | 320 kts | 142° |
| 2026-04-30 19:42 | 35.90335 | 25.37056 | 13870 ft | 324 kts | 142° |
| 2026-04-30 19:42 | 35.88578 | 25.38804 | 13490 ft | 325 kts | 142° |
| 2026-04-30 19:42 | 35.86823 | 25.40548 | 13149 ft | 323 kts | 142° |
| 2026-04-30 19:43 | 35.85078 | 25.42281 | 12818 ft | 322 kts | 142° |
| 2026-04-30 19:43 | 35.83246 | 25.43813 | 12506 ft | 316 kts | 161° |
| 2026-04-30 19:43 | 35.81139 | 25.44231 | 12320 ft | 303 kts | 182° |
| 2026-04-30 19:44 | 35.76981 | 25.44264 | 11794 ft | 298 kts | 182° |
| 2026-04-30 19:44 | 35.74909 | 25.44287 | 11477 ft | 297 kts | 182° |
| 2026-04-30 19:44 | 35.72841 | 25.44317 | 11183 ft | 296 kts | 182° |
| 2026-04-30 19:44 | 35.70781 | 25.44351 | 10895 ft | 295 kts | 182° |
| 2026-04-30 19:45 | 35.68729 | 25.44388 | 10604 ft | 295 kts | 182° |
| 2026-04-30 19:45 | 35.66682 | 25.44427 | 10313 ft | 294 kts | 182° |
| 2026-04-30 19:45 | 35.64644 | 25.44468 | 10033 ft | 293 kts | 182° |
| 2026-04-30 19:45 | 35.62607 | 25.44509 | 9748 ft | 292 kts | 182° |
| 2026-04-30 19:46 | 35.60600 | 25.44550 | 9366 ft | 286 kts | 182° |
| 2026-04-30 19:46 | 35.58611 | 25.44591 | 8889 ft | 285 kts | 182° |
| 2026-04-30 19:46 | 35.56635 | 25.44632 | 8437 ft | 283 kts | 182° |
| 2026-04-30 19:46 | 35.54676 | 25.44672 | 8021 ft | 280 kts | 182° |
| 2026-04-30 19:47 | 35.52738 | 25.44712 | 7600 ft | 277 kts | 182° |
| 2026-04-30 19:47 | 35.51465 | 25.44738 | 7328 ft | 275 kts | 182° |
| 2026-04-30 19:47 | 35.48925 | 25.44790 | 6868 ft | 269 kts | 182° |
| 2026-04-30 19:47 | 35.47091 | 25.44828 | 6642 ft | 259 kts | 182° |
| 2026-04-30 19:48 | 35.45314 | 25.44865 | 6403 ft | 251 kts | 182° |
| 2026-04-30 19:48 | 35.43603 | 25.44900 | 6211 ft | 241 kts | 182° |
| 2026-04-30 19:48 | 35.41951 | 25.44934 | 5989 ft | 234 kts | 182° |
| 2026-04-30 19:48 | 35.40347 | 25.44968 | 5729 ft | 228 kts | 182° |
| 2026-04-30 19:49 | 35.38767 | 25.45000 | 5406 ft | 226 kts | 182° |
| 2026-04-30 19:49 | 35.35928 | 25.43888 | 4541 ft | 221 kts | 236° |
| 2026-04-30 19:49 | 35.35184 | 25.42302 | 4247 ft | 211 kts | 245° |
| 2026-04-30 19:50 | 35.34576 | 25.40714 | 3963 ft | 202 kts | 246° |
| 2026-04-30 19:50 | 35.33999 | 25.39188 | 3694 ft | 193 kts | 246° |
| 2026-04-30 19:50 | 35.33441 | 25.37722 | 3432 ft | 186 kts | 246° |
| 2026-04-30 19:50 | 35.32921 | 25.36307 | 3191 ft | 178 kts | 253° |
| 2026-04-30 19:51 | 35.32867 | 25.34840 | 2977 ft | 172 kts | 276° |
| 2026-04-30 19:51 | 35.32951 | 25.33369 | 2712 ft | 172 kts | 274° |
| 2026-04-30 19:51 | 35.33030 | 25.31942 | 2443 ft | 164 kts | 275° |
| 2026-04-30 19:51 | 35.33116 | 25.30584 | 2202 ft | 155 kts | 274° |
| 2026-04-30 19:52 | 35.33203 | 25.29270 | 1978 ft | 157 kts | 275° |
| 2026-04-30 19:52 | 35.33292 | 25.27960 | 1741 ft | 151 kts | 275° |
| 2026-04-30 19:52 | 35.33378 | 25.26698 | 1520 ft | 146 kts | 274° |
| 2026-04-30 19:52 | 35.33462 | 25.25470 | 1311 ft | 148 kts | 274° |
| 2026-04-30 19:53 | 35.33550 | 25.24195 | 1087 ft | 151 kts | 274° |
| 2026-04-30 19:53 | 35.33637 | 25.22898 | 823 ft | 154 kts | 274° |
| 2026-04-30 19:53 | 35.33730 | 25.21577 | 554 ft | 158 kts | 274° |
| 2026-04-30 19:53 | 35.33825 | 25.20216 | 331 ft | 156 kts | 273° |
| 2026-04-30 19:54 | 35.33914 | 25.18934 | 134 ft | 149 kts | 272° |
| 2026-04-30 19:54 | 35.33990 | 25.17811 | 96 ft | 105 kts | 275° |
| 2026-04-30 19:54 | 35.34025 | 25.17190 | 84 ft | 41 kts | 259° |
| 2026-04-30 19:54 | 35.33959 | 25.17052 | 71 ft | 9 kts | 182° |
| 2026-04-30 19:55 | 35.33938 | 25.17106 | 77 ft | 7 kts | 90° |
| 2026-04-30 19:55 | 35.33934 | 25.17166 | 83 ft | 7 kts | 94° |
| 2026-04-30 19:55 | 35.33930 | 25.17225 | 80 ft | 7 kts | 94° |
| 2026-04-30 19:55 | 35.33791 | 25.17302 | 85 ft | 0 kts | 276° |